Time;durP1;ratioP1;P1;durP2;ratioP2;P2;SDS_P1;SDS_P2;PMS_P1;PMS_P2;Temp;Humidity;BMP_temperature;BMP_pressure;BME280_temperature;BME280_humidity;BME280_pressure;Samples;Min_cycle;Max_cycle;Signal;HPM_P1;HPM_P2
2021/01/06 06:01:17;;;;;;;10.13;5.93;;;2.60;97.30;;;;;;5654660;23;20501;-74
2021/01/06 06:04:06;;;;;;;13.93;6.40;;;2.60;97.30;;;;;;4912385;29;20433;-74
2021/01/06 06:06:57;;;;;;;12.07;6.23;;;2.60;97.30;;;;;;4898298;29;20782;-74
2021/01/06 06:09:34;;;;;;;12.50;5.87;;;2.60;97.30;;;;;;4898523;29;20516;-75
2021/01/06 06:12:33;;;;;;;9.30;5.37;;;2.60;97.30;;;;;;4897967;29;20445;-75
2021/01/06 06:15:31;;;;;;;11.93;6.27;;;2.60;97.30;;;;;;4897605;29;20477;-74
2021/01/06 06:18:20;;;;;;;12.30;5.67;;;2.60;97.30;;;;;;4893951;29;20449;-74
2021/01/06 06:21:17;;;;;;;10.67;5.60;;;2.60;97.30;;;;;;4897824;29;20453;-74
2021/01/06 06:24:07;;;;;;;13.23;6.27;;;2.60;97.30;;;;;;4895245;29;20994;-74
2021/01/06 06:27:26;;;;;;;14.57;6.73;;;2.60;97.30;;;;;;4895671;29;20486;-74
2021/01/06 06:30:10;;;;;;;16.07;6.77;;;2.60;97.30;;;;;;4878708;29;20566;-74
2021/01/06 06:32:42;;;;;;;17.37;7.80;;;2.60;97.30;;;;;;4896267;29;20448;-74
2021/01/06 06:35:23;;;;;;;20.10;7.20;;;2.60;97.30;;;;;;4896383;29;20461;-74
2021/01/06 06:37:56;;;;;;;16.93;7.10;;;2.60;97.30;;;;;;4896117;29;20458;-74
2021/01/06 06:40:22;;;;;;;19.93;8.00;;;2.60;97.30;;;;;;4895142;29;20421;-74
2021/01/06 06:43:01;;;;;;;18.30;7.03;;;2.60;97.30;;;;;;4896341;29;20424;-74
2021/01/06 06:45:43;;;;;;;12.87;5.80;;;2.60;97.30;;;;;;4896300;29;20433;-74
2021/01/06 06:48:28;;;;;;;14.20;6.37;;;2.60;97.30;;;;;;4896048;29;20428;-74
2021/01/06 06:51:20;;;;;;;11.80;4.80;;;2.60;97.30;;;;;;4896602;29;20528;-74
2021/01/06 06:53:57;;;;;;;10.10;4.93;;;2.60;97.30;;;;;;4897525;29;20441;-74
2021/01/06 06:57:00;;;;;;;10.50;4.00;;;2.60;97.30;;;;;;4897303;29;20465;-74
2021/01/06 06:59:51;;;;;;;6.43;3.47;;;2.50;97.30;;;;;;4894354;29;20843;-74
2021/01/06 07:02:17;;;;;;;7.57;3.53;;;2.50;97.30;;;;;;4919158;29;20485;-74
2021/01/06 07:04:47;;;;;;;5.37;3.17;;;2.60;97.30;;;;;;4897357;29;20939;-74
2021/01/06 07:07:34;;;;;;;5.20;3.10;;;2.60;97.30;;;;;;4895944;29;20508;-74
2021/01/06 07:10:06;;;;;;;4.40;2.77;;;2.60;97.30;;;;;;4900722;29;20779;-74
2021/01/06 07:12:39;;;;;;;4.00;2.40;;;2.60;97.30;;;;;;4900835;29;20456;-74
2021/01/06 07:15:06;;;;;;;3.07;2.30;;;2.60;97.30;;;;;;4897676;29;20541;-74
2021/01/06 07:17:39;;;;;;;2.80;2.23;;;2.60;97.30;;;;;;4899419;29;20793;-74
2021/01/06 07:20:13;;;;;;;3.67;2.43;;;2.50;97.30;;;;;;4897579;29;20425;-74
2021/01/06 07:22:41;;;;;;;4.90;2.70;;;2.50;97.30;;;;;;4899458;29;20413;-74
2021/01/06 07:25:13;;;;;;;3.37;2.70;;;2.50;97.30;;;;;;4900687;29;20437;-74
2021/01/06 07:27:39;;;;;;;3.00;2.20;;;2.50;97.30;;;;;;4899162;29;20425;-74
2021/01/06 07:30:08;;;;;;;4.80;2.30;;;2.60;97.30;;;;;;4900522;29;20557;-74
2021/01/06 07:32:38;;;;;;;4.67;2.27;;;2.60;97.30;;;;;;4899175;29;20806;-74
2021/01/06 07:35:11;;;;;;;2.90;2.23;;;2.60;97.30;;;;;;4899355;29;20461;-74
2021/01/06 07:37:55;;;;;;;2.40;2.07;;;2.60;97.30;;;;;;4900419;29;20413;-74
2021/01/06 07:40:28;;;;;;;2.13;1.93;;;2.60;97.30;;;;;;4898765;29;20441;-74
2021/01/06 07:43:22;;;;;;;2.60;2.40;;;2.60;97.30;;;;;;4899258;29;20420;-74
2021/01/06 07:45:59;;;;;;;4.00;2.60;;;2.60;97.30;;;;;;4900382;29;20424;-74
2021/01/06 07:48:43;;;;;;;2.83;1.97;;;2.60;97.30;;;;;;4895909;29;20472;-74
2021/01/06 07:51:15;;;;;;;3.30;2.10;;;2.60;97.30;;;;;;4898555;29;20444;-74
2021/01/06 07:54:08;;;;;;;2.53;2.00;;;2.60;97.30;;;;;;4900018;29;20452;-74
2021/01/06 07:56:39;;;;;;;2.90;2.00;;;2.60;97.30;;;;;;4899009;29;20472;-74
2021/01/06 07:59:17;;;;;;;5.50;2.07;;;2.60;97.30;;;;;;4897764;29;20899;-74
2021/01/06 08:02:05;;;;;;;1.93;1.80;;;2.60;97.30;;;;;;4898614;29;21013;-74
2021/01/06 08:04:37;;;;;;;3.20;1.90;;;2.60;97.30;;;;;;4898716;29;20938;-74
2021/01/06 08:07:06;;;;;;;2.67;2.00;;;2.60;97.30;;;;;;4900478;29;20414;-74
2021/01/06 08:09:39;;;;;;;2.60;1.90;;;2.60;97.30;;;;;;4899119;29;20421;-74
2021/01/06 08:12:22;;;;;;;2.50;2.20;;;2.60;97.30;;;;;;4919741;29;20877;-74
2021/01/06 08:14:48;;;;;;;4.17;2.27;;;2.60;97.30;;;;;;4899546;29;20413;-74
2021/01/06 08:17:26;;;;;;;2.70;2.10;;;2.60;97.30;;;;;;4899661;29;20437;-74
2021/01/06 08:20:08;;;;;;;3.00;2.20;;;2.60;97.30;;;;;;4898489;29;20512;-74
2021/01/06 08:22:40;;;;;;;2.90;2.10;;;2.60;97.30;;;;;;4898140;29;20441;-74
2021/01/06 08:25:16;;;;;;;3.17;2.20;;;2.60;97.30;;;;;;4898336;29;20422;-74
2021/01/06 08:27:44;;;;;;;3.30;2.23;;;2.60;97.30;;;;;;4899587;29;20479;-74
2021/01/06 08:30:20;;;;;;;2.23;1.80;;;2.60;97.30;;;;;;4898177;29;20418;-74
2021/01/06 08:32:47;;;;;;;2.13;1.83;;;2.60;97.30;;;;;;4898566;29;20421;-74
2021/01/06 08:35:20;;;;;;;3.50;2.20;;;2.60;97.30;;;;;;4898330;29;20840;-74
2021/01/06 08:37:51;;;;;;;2.50;2.00;;;2.60;97.30;;;;;;4898802;29;20485;-73
2021/01/06 08:40:43;;;;;;;2.37;2.13;;;2.60;97.30;;;;;;4899723;29;20422;-74
2021/01/06 08:43:11;;;;;;;3.10;2.10;;;2.60;97.30;;;;;;4898155;29;20417;-74
2021/01/06 08:45:52;;;;;;;3.77;2.20;;;2.60;97.30;;;;;;4897896;29;20430;-74
2021/01/06 08:48:39;;;;;;;3.50;2.30;;;2.60;97.30;;;;;;4897751;29;20430;-74
2021/01/06 08:51:14;;;;;;;2.83;2.33;;;2.60;97.30;;;;;;4896234;29;20453;-74
2021/01/06 08:53:42;;;;;;;2.73;2.20;;;2.60;97.30;;;;;;4896632;29;20435;-74
2021/01/06 08:56:22;;;;;;;3.80;2.33;;;2.60;97.30;;;;;;4898539;29;20473;-74
2021/01/06 08:58:52;;;;;;;3.90;2.43;;;2.60;97.30;;;;;;4898984;29;20779;-74
2021/01/06 09:01:22;;;;;;;2.33;2.13;;;2.60;97.30;;;;;;4899339;29;20461;-74
2021/01/06 09:04:16;;;;;;;2.43;1.97;;;2.50;97.30;;;;;;4899923;29;20417;-76
2021/01/06 09:07:17;;;;;;;4.17;2.10;;;2.60;97.30;;;;;;4899899;29;20447;-75
2021/01/06 09:10:01;;;;;;;2.90;2.17;;;2.60;97.30;;;;;;4898984;29;20878;-74
2021/01/06 09:12:48;;;;;;;3.40;2.10;;;2.60;97.30;;;;;;4898911;29;20441;-74
2021/01/06 09:15:49;;;;;;;2.30;1.90;;;2.60;97.30;;;;;;4895150;29;20465;-74
2021/01/06 09:18:25;;;;;;;3.00;2.20;;;2.60;97.30;;;;;;4897808;29;20429;-74
2021/01/06 09:21:15;;;;;;;2.90;2.30;;;2.60;97.30;;;;;;4899017;29;20816;-74
2021/01/06 09:23:46;;;;;;;3.07;2.27;;;2.70;97.30;;;;;;4897884;29;20453;-74
2021/01/06 09:26:16;;;;;;;2.13;2.00;;;2.70;97.30;;;;;;4898005;29;20445;-74
2021/01/06 09:28:48;;;;;;;2.50;2.03;;;2.70;97.30;;;;;;4898130;29;20453;-74
2021/01/06 09:31:16;;;;;;;4.23;2.60;;;2.70;97.30;;;;;;4897926;29;20536;-74
2021/01/06 09:33:43;;;;;;;3.70;2.70;;;2.70;97.30;;;;;;4897883;29;20982;-74
2021/01/06 09:36:10;;;;;;;3.00;2.47;;;2.70;97.30;;;;;;4897297;29;20464;-74
2021/01/06 09:38:39;;;;;;;2.80;2.57;;;2.70;97.30;;;;;;4897202;29;20512;-74
2021/01/06 09:41:08;;;;;;;2.90;2.40;;;2.70;97.30;;;;;;4895212;29;20468;-74
2021/01/06 09:43:35;;;;;;;2.27;1.90;;;2.70;97.30;;;;;;4910341;29;20520;-74
2021/01/06 09:46:01;;;;;;;4.00;2.50;;;2.70;97.30;;;;;;4897040;29;20449;-75
2021/01/06 09:48:28;;;;;;;3.30;2.37;;;2.70;97.30;;;;;;4893889;29;20962;-74
2021/01/06 09:50:59;;;;;;;4.07;2.60;;;2.70;97.30;;;;;;4897831;29;20787;-74
2021/01/06 09:53:28;;;;;;;4.80;2.50;;;2.70;97.30;;;;;;4896550;29;20998;-74
2021/01/06 09:55:55;;;;;;;4.97;2.97;;;2.70;97.30;;;;;;4912293;29;20920;-75
2021/01/06 09:58:39;;;;;;;3.90;2.67;;;2.80;97.30;;;;;;4897847;29;20437;-75
2021/01/06 10:01:27;;;;;;;4.03;2.90;;;2.80;97.30;;;;;;4896857;29;20471;-75
2021/01/06 10:03:55;;;;;;;6.13;3.27;;;2.80;97.30;;;;;;4896961;29;20525;-74
2021/01/06 10:06:41;;;;;;;4.57;2.90;;;2.80;97.30;;;;;;4896919;29;20422;-74
2021/01/06 10:09:44;;;;;;;6.43;3.20;;;2.80;97.30;;;;;;4896896;29;20492;-74
2021/01/06 10:12:16;;;;;;;4.47;2.87;;;2.80;97.30;;;;;;4877362;29;20459;-74
2021/01/06 10:15:29;;;;;;;6.30;3.20;;;2.80;97.30;;;;;;4897941;29;20995;-74
2021/01/06 10:18:02;;;;;;;5.20;3.13;;;2.90;97.30;;;;;;4892980;29;20440;-74
2021/01/06 10:20:38;;;;;;;6.03;3.63;;;2.90;97.30;;;;;;4896881;29;20477;-75
2021/01/06 10:23:19;;;;;;;5.67;3.43;;;2.90;97.30;;;;;;4896583;29;20428;-74
2021/01/06 10:25:54;;;;;;;5.53;3.23;;;2.90;97.30;;;;;;4896990;29;20429;-74
2021/01/06 10:28:23;;;;;;;5.73;3.10;;;2.90;97.30;;;;;;4896574;29;20879;-75
2021/01/06 10:31:07;;;;;;;5.60;3.57;;;2.90;97.30;;;;;;4897995;29;20448;-75
2021/01/06 10:33:34;;;;;;;7.30;3.30;;;2.90;97.30;;;;;;4896398;29;20410;-74
2021/01/06 10:36:06;;;;;;;6.70;3.67;;;2.90;97.30;;;;;;4896642;29;20496;-74
2021/01/06 10:38:46;;;;;;;4.50;3.30;;;2.90;97.30;;;;;;4896392;29;20417;-73
2021/01/06 10:41:29;;;;;;;5.60;3.03;;;2.90;97.30;;;;;;4896651;29;20881;-75
2021/01/06 10:43:58;;;;;;;4.10;3.17;;;2.90;97.30;;;;;;4898893;29;20516;-75
2021/01/06 10:46:42;;;;;;;6.93;3.50;;;2.90;97.30;;;;;;4901661;29;20768;-74
2021/01/06 10:49:19;;;;;;;5.30;3.20;;;2.90;97.30;;;;;;4901513;29;20476;-74
2021/01/06 10:52:00;;;;;;;4.23;2.60;;;2.90;97.30;;;;;;4900168;29;20449;-75
2021/01/06 10:54:44;;;;;;;2.63;1.90;;;2.90;97.30;;;;;;4900393;29;20417;-75
2021/01/06 10:57:28;;;;;;;2.67;1.90;;;2.80;97.30;;;;;;4901413;29;20548;-74
2021/01/06 11:00:13;;;;;;;5.80;3.17;;;2.80;97.30;;;;;;4900057;29;20428;-75
2021/01/06 11:03:16;;;;;;;3.53;2.77;;;2.90;97.30;;;;;;4901018;29;20945;-75
2021/01/06 11:05:59;;;;;;;4.43;2.47;;;3.00;97.30;;;;;;4900283;29;20432;-75
2021/01/06 11:08:46;;;;;;;3.03;2.40;;;3.00;97.30;;;;;;4901027;29;20470;-75
2021/01/06 11:11:34;;;;;;;3.07;2.50;;;2.90;97.30;;;;;;4899760;29;20985;-75
2021/01/06 11:14:21;;;;;;;4.00;2.40;;;2.80;97.30;;;;;;4900004;29;20429;-74
2021/01/06 11:16:48;;;;;;;3.00;2.40;;;2.80;97.30;;;;;;4931317;29;20473;-75
2021/01/06 11:19:53;;;;;;;3.60;2.40;;;2.80;97.30;;;;;;4899621;29;20916;-75
2021/01/06 11:22:33;;;;;;;3.80;2.57;;;2.80;97.30;;;;;;4899580;29;20449;-74
2021/01/06 11:25:14;;;;;;;3.70;2.53;;;2.80;97.30;;;;;;4900976;29;20448;-74
2021/01/06 11:27:50;;;;;;;3.20;2.63;;;2.70;97.30;;;;;;4899482;29;20429;-74
2021/01/06 11:30:24;;;;;;;3.30;2.70;;;2.70;97.30;;;;;;4899681;29;20488;-75
2021/01/06 11:33:09;;;;;;;4.10;2.77;;;2.70;97.30;;;;;;4899589;29;20947;-75
2021/01/06 11:35:49;;;;;;;3.73;2.83;;;2.70;97.30;;;;;;4900536;29;20461;-75
2021/01/06 11:38:37;;;;;;;3.30;2.50;;;2.70;97.30;;;;;;4899393;29;20432;-75
2021/01/06 11:41:05;;;;;;;3.03;2.50;;;2.70;97.30;;;;;;4896400;29;20441;-75
2021/01/06 11:43:52;;;;;;;2.87;2.50;;;2.70;97.30;;;;;;4900686;29;20760;-74
2021/01/06 11:46:45;;;;;;;3.30;2.57;;;2.70;97.30;;;;;;4900863;29;20496;-76
2021/01/06 11:49:11;;;;;;;5.37;3.63;;;2.70;97.30;;;;;;4897016;29;20425;-74
2021/01/06 11:52:00;;;;;;;6.40;3.57;;;2.70;97.30;;;;;;4900599;29;20446;-74
2021/01/06 11:54:29;;;;;;;5.67;3.47;;;2.70;97.30;;;;;;4898662;29;20196;-75
2021/01/06 11:57:06;;;;;;;6.30;3.50;;;2.70;97.30;;;;;;4900315;29;20508;-76
2021/01/06 11:59:45;;;;;;;5.63;3.20;;;2.70;97.30;;;;;;4900435;29;20530;-75
2021/01/06 12:02:32;;;;;;;4.23;2.90;;;2.70;97.30;;;;;;4899198;29;20487;-74
2021/01/06 12:05:15;;;;;;;3.90;3.30;;;2.70;97.30;;;;;;4899296;29;20505;-75
2021/01/06 12:08:13;;;;;;;4.80;3.60;;;2.70;97.30;;;;;;4900289;29;20899;-75
2021/01/06 12:11:07;;;;;;;4.90;2.83;;;2.60;97.30;;;;;;4899099;29;20442;-74
2021/01/06 12:13:48;;;;;;;5.63;3.67;;;2.70;97.30;;;;;;4900183;29;20394;-74
2021/01/06 12:16:16;;;;;;;2.70;2.50;;;2.70;97.30;;;;;;4899605;29;20579;-73
2021/01/06 12:18:57;;;;;;;3.03;2.90;;;2.70;97.30;;;;;;4898408;29;20481;-74
2021/01/06 12:21:34;;;;;;;2.33;2.20;;;2.70;97.30;;;;;;4898537;29;20457;-75
2021/01/06 12:24:18;;;;;;;3.53;2.33;;;2.60;97.30;;;;;;4898648;29;20426;-75
2021/01/06 12:27:18;;;;;;;3.00;2.63;;;2.60;97.30;;;;;;4898918;29;20502;-74
2021/01/06 12:29:59;;;;;;;2.60;2.50;;;2.60;97.30;;;;;;4899822;29;20414;-75
2021/01/06 12:32:24;;;;;;;9.23;2.70;;;2.60;97.30;;;;;;4898461;29;20445;-74
2021/01/06 12:34:59;;;;;;;3.90;3.17;;;2.60;97.30;;;;;;4899610;29;20421;-73
2021/01/06 12:37:34;;;;;;;7.80;4.00;;;2.60;97.30;;;;;;4898570;29;20217;-74
2021/01/06 12:39:59;;;;;;;4.30;3.30;;;2.60;97.30;;;;;;4898441;29;20421;-73
2021/01/06 12:42:41;;;;;;;5.10;3.63;;;2.60;97.30;;;;;;4898367;29;20441;-74
2021/01/06 12:45:13;;;;;;;7.53;4.00;;;2.70;97.30;;;;;;4898256;29;20185;-74
2021/01/06 12:48:02;;;;;;;6.10;3.60;;;2.70;97.30;;;;;;4898427;29;20433;-73
2021/01/06 12:50:52;;;;;;;5.57;3.87;;;2.70;97.30;;;;;;4899061;29;20952;-74
2021/01/06 12:53:20;;;;;;;6.50;3.97;;;2.60;97.30;;;;;;4899309;29;20425;-74
2021/01/06 12:55:52;;;;;;;6.60;3.47;;;2.60;97.30;;;;;;4898193;29;20453;-74
2021/01/06 12:58:21;;;;;;;5.67;3.87;;;2.60;97.30;;;;;;4898015;29;20928;-73
2021/01/06 13:00:59;;;;;;;5.27;3.07;;;2.60;97.30;;;;;;4897788;29;20816;-74
2021/01/06 13:03:29;;;;;;;5.57;3.67;;;2.60;97.30;;;;;;4898003;29;20428;-74
2021/01/06 13:06:16;;;;;;;5.77;3.80;;;2.50;97.30;;;;;;4897055;29;20459;-74
2021/01/06 13:09:11;;;;;;;6.37;3.63;;;2.50;97.30;;;;;;4929568;29;20417;-75
2021/01/06 13:11:37;;;;;;;6.37;4.30;;;2.50;97.30;;;;;;4897845;29;20476;-74
2021/01/06 13:14:34;;;;;;;4.67;3.23;;;2.50;97.30;;;;;;4897594;29;20452;-74
2021/01/06 13:17:18;;;;;;;4.83;3.20;;;2.50;97.30;;;;;;4898397;29;20221;-75
2021/01/06 13:20:03;;;;;;;4.03;3.40;;;2.40;97.30;;;;;;4898996;29;20417;-73
2021/01/06 13:22:44;;;;;;;4.10;3.37;;;2.40;97.30;;;;;;4897443;29;20505;-72
2021/01/06 13:25:15;;;;;;;4.13;3.27;;;2.40;97.30;;;;;;4897718;29;20983;-73
2021/01/06 13:27:50;;;;;;;4.27;3.37;;;2.40;97.30;;;;;;4898823;29;20414;-74
2021/01/06 13:30:25;;;;;;;4.57;3.60;;;2.40;97.30;;;;;;4898755;29;20407;-74
2021/01/06 13:33:15;;;;;;;6.33;4.03;;;2.40;97.30;;;;;;4897587;29;20420;-74
2021/01/06 13:35:43;;;;;;;5.60;3.90;;;2.40;97.30;;;;;;4897486;29;21034;-74
2021/01/06 13:38:29;;;;;;;4.53;3.60;;;2.40;97.30;;;;;;4897239;29;20425;-73
2021/01/06 13:41:00;;;;;;;4.53;3.60;;;2.30;97.30;;;;;;4897316;29;20951;-75
2021/01/06 13:43:25;;;;;;;4.23;3.23;;;2.20;97.30;;;;;;4897379;29;20421;-74
2021/01/06 13:46:18;;;;;;;4.17;3.10;;;2.20;97.30;;;;;;4898654;29;20406;-73
2021/01/06 13:49:06;;;;;;;7.00;3.57;;;2.20;97.30;;;;;;4898359;29;20173;-73
2021/01/06 13:51:53;;;;;;;4.37;3.20;;;2.20;97.30;;;;;;4897480;29;20457;-73
2021/01/06 13:54:53;;;;;;;5.17;3.80;;;2.20;97.30;;;;;;4897458;29;20424;-73
2021/01/06 13:57:52;;;;;;;6.93;3.90;;;2.20;97.30;;;;;;4897205;29;21206;-74
2021/01/06 14:00:32;;;;;;;4.50;3.57;;;2.10;97.30;;;;;;4898497;29;20413;-74
2021/01/06 14:03:32;;;;;;;4.03;3.40;;;2.10;97.30;;;;;;4897484;29;20421;-73
2021/01/06 14:06:01;;;;;;;6.93;3.90;;;2.10;97.30;;;;;;4897312;29;20477;-73
2021/01/06 14:09:05;;;;;;;6.33;3.60;;;2.10;97.30;;;;;;4898094;29;20406;-73
2021/01/06 14:12:08;;;;;;;5.87;3.80;;;2.10;97.30;;;;;;4897031;29;20449;-72
2021/01/06 14:14:49;;;;;;;6.23;4.07;;;2.10;97.30;;;;;;4896713;29;20481;-73
2021/01/06 14:17:29;;;;;;;6.47;4.40;;;2.10;97.30;;;;;;4896486;29;20484;-72
2021/01/06 14:20:13;;;;;;;8.20;5.30;;;2.10;97.30;;;;;;4898080;29;20508;-73
2021/01/06 14:22:47;;;;;;;9.77;6.80;;;2.10;97.30;;;;;;4897911;29;20409;-73
2021/01/06 14:25:29;;;;;;;10.90;7.70;;;2.10;97.30;;;;;;4898099;29;20446;-73
2021/01/06 14:28:02;;;;;;;7.53;5.23;;;2.10;97.30;;;;;;4898051;29;20946;-73
2021/01/06 14:30:35;;;;;;;6.87;4.97;;;2.10;97.30;;;;;;4897810;29;20857;-74
2021/01/06 14:33:45;;;;;;;7.63;5.20;;;2.10;97.30;;;;;;4896839;29;20421;-74
2021/01/06 14:36:34;;;;;;;7.57;5.60;;;2.10;97.30;;;;;;4875786;29;20556;-74
2021/01/06 14:39:05;;;;;;;31.13;15.33;;;2.10;97.30;;;;;;4897639;29;20429;-74
2021/01/06 14:41:45;;;;;;;10.03;6.43;;;2.20;97.30;;;;;;4897360;29;20432;-74
2021/01/06 14:44:34;;;;;;;15.13;8.33;;;2.20;97.30;;;;;;4896488;29;20422;-73
2021/01/06 14:46:59;;;;;;;6.40;4.93;;;2.20;97.30;;;;;;4897984;29;20485;-74
2021/01/06 14:49:33;;;;;;;6.57;5.40;;;2.10;97.30;;;;;;4897901;29;20500;-74
2021/01/06 14:52:47;;;;;;;4.73;3.70;;;2.10;97.30;;;;;;4896754;29;20205;-74
2021/01/06 14:55:24;;;;;;;5.57;4.63;;;2.10;97.30;;;;;;4861789;29;21032;-73
2021/01/06 14:58:14;;;;;;;13.73;6.73;;;2.10;97.30;;;;;;4895593;29;20424;-74
2021/01/06 15:00:47;;;;;;;64.20;28.23;;;2.20;97.30;;;;;;4897742;29;20529;-74
2021/01/06 15:03:40;;;;;;;61.90;28.93;;;2.10;97.30;;;;;;4896722;29;20508;-73
2021/01/06 15:06:11;;;;;;;26.00;12.90;;;2.10;97.30;;;;;;4896573;29;20418;-73
2021/01/06 15:09:22;;;;;;;19.97;13.07;;;2.10;97.30;;;;;;4896314;29;20425;-74
2021/01/06 15:12:00;;;;;;;25.07;15.83;;;2.10;97.30;;;;;;4881861;29;20944;-74
2021/01/06 15:14:26;;;;;;;8.70;5.47;;;2.10;97.30;;;;;;4896519;29;20418;-74
2021/01/06 15:16:57;;;;;;;35.50;16.97;;;2.10;97.30;;;;;;4896000;29;20576;-75
2021/01/06 15:19:35;;;;;;;52.73;26.13;;;2.10;97.30;;;;;;4897806;29;20421;-74
2021/01/06 15:22:13;;;;;;;13.17;8.20;;;2.10;97.30;;;;;;4896530;29;20446;-75
2021/01/06 15:24:43;;;;;;;7.30;4.47;;;2.10;97.30;;;;;;4897757;29;20435;-73
2021/01/06 15:27:19;;;;;;;6.03;5.40;;;2.10;97.30;;;;;;4897490;29;20501;-73
2021/01/06 15:30:05;;;;;;;6.63;4.00;;;2.10;97.30;;;;;;4898449;29;20432;-73
2021/01/06 15:32:44;;;;;;;4.03;3.67;;;2.10;97.30;;;;;;4899860;29;20501;-73
2021/01/06 15:35:13;;;;;;;5.60;4.20;;;2.10;97.30;;;;;;4900904;29;20409;-74
2021/01/06 15:37:39;;;;;;;6.37;4.37;;;2.10;97.30;;;;;;4899688;29;20424;-74
2021/01/06 15:40:08;;;;;;;7.17;5.40;;;2.10;97.30;;;;;;4899388;29;20971;-74
2021/01/06 15:42:34;;;;;;;6.40;3.80;;;2.10;97.30;;;;;;4899296;29;20444;-75
2021/01/06 15:45:12;;;;;;;4.97;3.60;;;2.00;97.30;;;;;;4899015;29;20963;-74
2021/01/06 15:47:40;;;;;;;5.20;3.10;;;2.00;97.30;;;;;;4899456;29;20489;-74
2021/01/06 15:50:27;;;;;;;4.70;3.73;;;2.00;97.30;;;;;;4899393;29;20417;-73
2021/01/06 15:53:18;;;;;;;5.03;3.53;;;2.00;97.30;;;;;;4899349;29;20939;-74
2021/01/06 15:55:53;;;;;;;4.77;3.10;;;2.00;97.30;;;;;;4900564;29;20461;-74
2021/01/06 15:58:20;;;;;;;4.93;3.33;;;2.00;97.30;;;;;;4899102;29;20428;-74
2021/01/06 16:00:48;;;;;;;5.90;5.13;;;2.00;97.30;;;;;;4898936;29;20514;-74
2021/01/06 16:03:21;;;;;;;4.43;2.77;;;2.00;97.30;;;;;;4900460;29;20968;-73
2021/01/06 16:05:48;;;;;;;4.80;3.63;;;2.00;97.30;;;;;;4899143;29;20422;-73
2021/01/06 16:08:32;;;;;;;6.50;4.00;;;1.90;97.30;;;;;;4900056;29;20508;-74
2021/01/06 16:11:02;;;;;;;5.50;3.87;;;1.90;97.30;;;;;;4898619;29;20847;-74
2021/01/06 16:13:34;;;;;;;5.80;3.77;;;1.90;97.30;;;;;;4898796;29;20473;-74
2021/01/06 16:16:04;;;;;;;4.80;3.43;;;1.90;97.30;;;;;;4900039;29;20864;-74
2021/01/06 16:18:44;;;;;;;4.87;3.50;;;1.90;97.30;;;;;;4898694;29;20420;-73
2021/01/06 16:21:30;;;;;;;4.80;4.00;;;1.90;97.30;;;;;;4883708;29;20529;-75
2021/01/06 16:23:59;;;;;;;4.57;3.20;;;1.90;97.30;;;;;;4898479;29;20425;-74
2021/01/06 16:26:34;;;;;;;7.43;4.37;;;1.90;97.30;;;;;;4898436;29;20430;-75
2021/01/06 16:29:04;;;;;;;5.80;3.53;;;1.90;97.30;;;;;;4898526;29;20436;-74
2021/01/06 16:31:52;;;;;;;6.90;4.07;;;1.90;97.30;;;;;;4898209;29;20437;-74
2021/01/06 16:34:22;;;;;;;5.30;3.87;;;1.90;97.30;;;;;;4896441;29;20802;-74
2021/01/06 16:36:49;;;;;;;7.00;3.90;;;1.90;97.30;;;;;;4908705;29;20479;-74
2021/01/06 16:39:22;;;;;;;7.37;3.83;;;1.90;97.30;;;;;;4908476;29;20413;-73
2021/01/06 16:41:52;;;;;;;6.20;3.90;;;1.90;97.30;;;;;;4905901;29;20966;-73
2021/01/06 16:44:41;;;;;;;7.70;4.33;;;1.90;97.30;;;;;;4908317;29;20779;-73
2021/01/06 16:47:12;;;;;;;5.83;4.03;;;1.90;97.30;;;;;;4909138;29;20417;-73
2021/01/06 16:49:50;;;;;;;5.10;3.70;;;1.90;97.30;;;;;;4901763;29;20441;-73
2021/01/06 16:52:20;;;;;;;28.70;12.43;;;1.90;97.30;;;;;;4913005;29;20451;-73
2021/01/06 16:54:55;;;;;;;10.23;5.20;;;1.90;97.30;;;;;;4906087;29;20540;-73
2021/01/06 16:57:49;;;;;;;6.50;4.60;;;1.90;97.30;;;;;;4904352;29;20453;-74
2021/01/06 17:00:22;;;;;;;6.67;4.63;;;1.90;97.30;;;;;;4907604;29;20444;-74
2021/01/06 17:02:55;;;;;;;6.43;4.50;;;1.80;97.30;;;;;;4900909;29;20496;-76
2021/01/06 17:05:22;;;;;;;7.17;4.60;;;1.80;97.30;;;;;;4907287;29;20437;-72
2021/01/06 17:07:52;;;;;;;7.13;4.53;;;1.80;97.30;;;;;;4910346;29;20449;-72
2021/01/06 17:10:35;;;;;;;6.33;4.37;;;1.80;97.30;;;;;;4911651;29;20412;-76
2021/01/06 17:13:06;;;;;;;7.93;5.03;;;1.80;97.30;;;;;;4909667;29;20449;-73
2021/01/06 17:15:35;;;;;;;5.50;4.00;;;1.80;97.30;;;;;;4899828;29;20461;-73
2021/01/06 17:18:07;;;;;;;7.37;4.23;;;1.70;97.30;;;;;;4897455;29;20424;-73
2021/01/06 17:20:34;;;;;;;6.47;4.00;;;1.70;97.30;;;;;;4878878;29;20453;-73
2021/01/06 17:23:12;;;;;;;6.57;3.80;;;1.70;97.30;;;;;;4879331;29;20477;-75
2021/01/06 17:25:37;;;;;;;5.20;3.90;;;1.70;97.30;;;;;;4879322;29;20418;-76
2021/01/06 17:28:13;;;;;;;5.73;3.67;;;1.70;97.30;;;;;;4879186;29;20423;-75
2021/01/06 17:30:41;;;;;;;5.50;3.90;;;1.70;97.30;;;;;;4897925;29;20239;-73
2021/01/06 17:33:36;;;;;;;6.67;3.90;;;1.70;97.30;;;;;;4899408;29;20843;-73
2021/01/06 17:36:03;;;;;;;6.30;4.47;;;1.70;97.30;;;;;;4897708;29;20489;-72
2021/01/06 17:38:28;;;;;;;6.13;4.27;;;1.70;97.30;;;;;;4897232;29;20437;-72
2021/01/06 17:40:55;;;;;;;5.67;3.70;;;1.70;97.30;;;;;;4898663;29;20979;-72
2021/01/06 17:43:21;;;;;;;5.70;4.13;;;1.70;97.30;;;;;;4898626;29;20450;-74
2021/01/06 17:45:48;;;;;;;5.53;3.70;;;1.70;97.30;;;;;;4898900;29;20695;-72
2021/01/06 17:48:23;;;;;;;5.83;3.93;;;1.70;97.30;;;;;;4896716;29;20488;-72
2021/01/06 17:50:52;;;;;;;7.37;5.13;;;1.70;97.30;;;;;;4898553;29;20441;-71
2021/01/06 17:53:20;;;;;;;7.17;4.87;;;1.70;97.30;;;;;;4897701;29;20453;-70
2021/01/06 17:55:48;;;;;;;8.20;4.53;;;1.70;97.30;;;;;;4896559;29;20476;-71
2021/01/06 17:58:15;;;;;;;8.07;4.87;;;1.70;97.30;;;;;;4898299;29;20421;-78
2021/01/06 18:00:43;;;;;;;9.97;5.50;;;1.70;97.30;;;;;;4897456;29;20442;-78
2021/01/06 18:03:14;;;;;;;9.67;5.87;;;1.70;97.30;;;;;;4898187;29;20532;-79
2021/01/06 18:05:40;;;;;;;11.60;5.60;;;1.60;97.30;;;;;;4897746;29;20414;-78
2021/01/06 18:08:07;;;;;;;9.73;5.73;;;1.60;97.30;;;;;;4898419;29;20521;-79
2021/01/06 18:10:41;;;;;;;10.20;6.00;;;1.60;97.30;;;;;;4898399;29;20456;-75
2021/01/06 18:13:12;;;;;;;7.03;4.17;;;1.60;97.30;;;;;;4898488;29;20410;-76
2021/01/06 18:15:51;;;;;;;8.43;5.00;;;1.60;97.30;;;;;;4897876;29;20481;-78
2021/01/06 18:18:21;;;;;;;69.57;21.87;;;1.60;97.30;;;;;;4899172;29;20426;-79
2021/01/06 18:20:49;;;;;;;8.67;5.20;;;1.60;97.30;;;;;;4879351;29;20459;-77
2021/01/06 18:23:27;;;;;;;80.80;30.40;;;1.60;97.30;;;;;;4878839;29;20429;-77
2021/01/06 18:25:55;;;;;;;55.33;29.53;;;1.70;97.30;;;;;;4878810;29;20477;-78
2021/01/06 18:28:21;;;;;;;32.23;16.93;;;1.70;97.30;;;;;;4886027;29;20512;-76
2021/01/06 18:31:00;;;;;;;24.50;13.17;;;1.70;97.30;;;;;;4896846;29;20524;-76
2021/01/06 18:33:31;;;;;;;22.37;12.40;;;1.70;97.30;;;;;;4896466;29;20452;-78
2021/01/06 18:36:22;;;;;;;24.73;13.80;;;1.70;97.30;;;;;;4898233;29;20480;-77
2021/01/06 18:39:01;;;;;;;14.70;6.90;;;1.70;97.30;;;;;;4893313;29;20421;-75
2021/01/06 18:41:33;;;;;;;17.67;9.77;;;1.70;97.30;;;;;;4896951;29;20441;-75
2021/01/06 18:43:59;;;;;;;57.87;31.77;;;1.60;97.30;;;;;;4896553;29;20429;-75
2021/01/06 18:46:35;;;;;;;20.73;11.40;;;1.60;97.30;;;;;;4896661;29;20440;-75
2021/01/06 18:49:05;;;;;;;46.00;21.07;;;1.60;97.30;;;;;;4897534;29;20240;-76
2021/01/06 18:51:52;;;;;;;54.27;24.40;;;1.70;97.30;;;;;;4896934;29;20453;-76
2021/01/06 18:54:36;;;;;;;18.30;9.43;;;1.60;97.30;;;;;;4897510;29;20464;-75
2021/01/06 18:57:17;;;;;;;35.90;16.40;;;1.60;97.30;;;;;;4896913;29;20979;-76
2021/01/06 18:59:43;;;;;;;76.47;30.47;;;1.60;97.30;;;;;;4898317;29;20421;-76
2021/01/06 19:02:37;;;;;;;22.67;10.67;;;1.60;97.30;;;;;;4896819;29;20957;-77
2021/01/06 19:05:19;;;;;;;38.27;15.67;;;1.60;97.30;;;;;;4899397;29;20923;-76
2021/01/06 19:07:57;;;;;;;27.73;14.33;;;1.60;97.30;;;;;;4884701;29;20453;-76
2021/01/06 19:10:34;;;;;;;45.57;24.80;;;1.60;97.30;;;;;;4889264;29;20518;-76
2021/01/06 19:13:03;;;;;;;45.03;23.07;;;1.60;97.30;;;;;;4902349;29;20423;-76
2021/01/06 19:15:31;;;;;;;19.90;10.20;;;1.70;97.30;;;;;;4900448;29;20491;-76
2021/01/06 19:17:58;;;;;;;15.83;8.93;;;1.60;97.30;;;;;;4900169;29;20520;-77
2021/01/06 19:20:28;;;;;;;15.70;8.90;;;1.60;97.30;;;;;;4900015;29;20919;-77
2021/01/06 19:23:02;;;;;;;23.40;9.70;;;1.60;97.30;;;;;;4900803;29;20421;-77
2021/01/06 19:25:35;;;;;;;17.87;9.10;;;1.60;97.30;;;;;;4900381;29;20463;-76
2021/01/06 19:28:14;;;;;;;21.93;12.67;;;1.60;97.30;;;;;;4900252;29;20433;-77
2021/01/06 19:30:52;;;;;;;20.90;10.00;;;1.50;97.30;;;;;;4900139;29;20505;-77
2021/01/06 19:33:37;;;;;;;19.20;9.40;;;1.50;97.30;;;;;;4900121;29;20464;-77
2021/01/06 19:36:06;;;;;;;19.33;9.27;;;1.60;97.30;;;;;;4900108;29;20476;-76
2021/01/06 19:38:53;;;;;;;24.37;9.37;;;1.60;97.30;;;;;;4900007;29;20442;-77
2021/01/06 19:41:35;;;;;;;17.60;8.40;;;1.60;97.30;;;;;;4902861;29;21022;-77
2021/01/06 19:44:09;;;;;;;19.63;9.57;;;1.50;97.30;;;;;;4906655;29;20443;-76
2021/01/06 19:46:43;;;;;;;20.80;9.50;;;1.50;97.30;;;;;;4904607;29;20497;-76
2021/01/06 19:49:23;;;;;;;17.77;8.70;;;1.50;97.30;;;;;;4905255;29;20439;-76